EDT,Max TemperatureF,Mean TemperatureF,Min TemperatureF,Max Dew PointF,MeanDew PointF,Min DewpointF,Max Humidity, Mean Humidity, Min Humidity, Max Sea Level PressureIn, Mean Sea Level PressureIn, Min Sea Level PressureIn, Max VisibilityMiles, Mean VisibilityMiles, Min VisibilityMiles, Max Wind SpeedMPH, Mean Wind SpeedMPH, Max Gust SpeedMPH,PrecipitationIn, CloudCover, Events, WindDirDegrees
2013-3-1,41,37,33,28,26,23,73,64,55,29.99,29.96,29.93,10,10,10,14,9,22,0.00,6,,289
2013-3-2,42,37,32,29,26,20,85,68,49,30.01,29.95,29.91,10,10,10,16,11,23,0.00,6,,292
2013-3-3,41,34,28,18,16,15,66,52,36,30.07,30.01,29.98,10,10,10,16,10,24,0.00,0,,301
2013-3-4,55,41,27,26,20,13,69,43,27,30.18,30.10,30.05,10,10,10,15,5,,0.00,0,,252
2013-3-5,63,50,37,54,40,23,88,68,47,30.07,29.87,29.68,10,8,2,23,6,38,0.26,7,Rain-Thunderstorm,230
2013-3-6,37,34,30,29,24,18,88,67,54,30.17,30.00,29.85,10,8,1,21,16,34,0.00,7,Snow,301
2013-3-7,57,42,28,31,27,24,89,59,33,30.25,30.20,30.14,10,10,9,15,7,20,0.00,0,,281
2013-3-8,62,47,32,28,25,23,79,48,22,30.33,30.26,30.19,10,10,9,10,3,,0.00,0,,262
2013-3-9,60,50,41,30,25,21,51,38,27,30.34,30.27,30.22,10,10,10,10,6,,0.00,0,,88
2013-3-10,66,56,46,42,33,29,64,43,25,30.25,30.17,30.11,10,10,10,14,7,34,0.00,0,,106
2013-3-11,62,56,51,55,50,42,100,86,64,30.11,29.93,29.82,10,6,1,14,7,33,1.36,7,Rain,115
2013-3-12,60,49,39,52,38,29,94,69,35,30.09,29.91,29.80,10,9,4,17,10,25,0.02,3,Rain,284
2013-3-13,52,44,36,29,24,18,76,48,27,30.23,30.14,30.08,10,10,10,22,9,32,0.00,0,,286
2013-3-14,54,40,28,18,16,13,61,40,24,30.36,30.26,30.22,10,10,10,13,9,20,0.00,0,,296
2013-3-15,71,54,37,40,33,21,79,49,29,30.21,30.11,29.98,10,10,10,17,8,29,0.00,0,,248
2013-3-16,75,64,52,41,39,35,63,44,26,29.99,29.93,29.86,10,10,8,18,11,25,0.00,0,,257
2013-3-17,70,60,51,50,46,39,77,59,43,30.00,29.95,29.90,10,10,10,10,6,20,0.00,0,,240
2013-3-18,57,50,42,52,43,40,100,91,70,30.05,29.96,29.83,10,4,0,17,9,26,0.30,8,Fog-Rain-Thunderstorm,90
2013-3-19,63,53,44,45,32,17,97,57,22,30.08,30.00,29.91,10,7,0,16,8,24,0.01,2,Fog,307
2013-3-20,57,48,41,27,16,11,53,30,19,30.12,30.01,29.89,10,10,10,17,7,28,0.00,2,,296
2013-3-21,46,38,30,27,13,3,60,37,23,29.98,29.92,29.87,10,10,10,15,11,28,0.00,0,,298
2013-3-22,50,42,36,28,19,11,52,40,31,30.06,30.02,29.97,10,10,10,7,3,,0.00,7,,12
2013-3-23,50,44,39,46,41,29,100,88,51,30.02,29.96,29.85,10,4,1,14,4,32,0.75,8,Rain-Thunderstorm,71
2013-3-24,46,45,42,45,43,28,97,91,58,29.84,29.66,29.53,10,5,2,22,12,37,1.29,8,Rain-Thunderstorm,76
2013-3-25,39,36,32,29,23,20,66,58,47,30.04,29.84,29.67,10,10,10,25,18,36,0.00,8,,282
2013-3-26,41,34,30,26,23,20,79,63,45,30.26,30.13,30.01,10,10,8,17,13,25,0.00,7,,292
2013-3-27,54,40,28,24,21,17,75,49,28,30.32,30.27,30.22,10,10,10,15,8,22,0.00,1,,288
2013-3-28,62,46,33,26,23,18,72,42,22,30.33,30.28,30.21,10,10,10,16,5,25,0.00,0,,308
2013-3-29,64,50,37,31,28,21,76,43,26,30.35,30.27,30.20,10,10,10,10,3,18,0.00,5,,267
2013-3-30,69,58,46,53,40,32,93,56,32,30.20,30.12,30.03,10,9,3,12,6,16,0.31,5,Rain,73
2013-3-31,64,58,53,57,53,51,100,89,70,30.06,29.97,29.87,10,6,1,17,6,22,0.40,8,Rain,229